Latest Weather Observations for Rottnest Island

IDW60801

Issued at 10:33 pm WST Saturday 30 July 2016 (issued every 30 minutes, with the page automatically refreshed every 10 minutes)

About weather observations | Map of weather stations | Latest weather observations for WA | Other Formats
Station Details ID: 009193 Name: ROTTNEST ISLAND Lat: -32.01 Lon: 115.50 Height: 43.1 m
Data from the previous 72 hours. | See also: Recent months at Rottnest Island
Date/Time
WST
Temp
°C
App
Temp
°C
Dew
Point
°C
Rel
Hum
%
Delta-T
°C
Wind Press
QNH
hPa
Press
MSL
hPa
Rain since
9am
mm
Dir  Spd
km/h
Gust
km/h
Spd
kts
Gust
kts
30/10:30pm 16.0 7.2 9.4 65 3.4 WNW 46 61 25 33 1015.2 1015.1 1.0
30/10:16pm 16.0 7.7 9.4 65 3.4 WNW 43 61 23 33 1015.2 1015.1 1.0
30/10:00pm 15.3 7.0 10.1 71 2.7 WNW 44 56 24 30 1015.4 1015.3 1.0
30/09:30pm 15.4 8.3 11.0 75 2.3 WNW 39 59 21 32 1015.9 1015.8 0.2
30/09:00pm 16.7 8.4 9.9 64 3.6 NW 44 56 24 30 1015.9 1015.8 0.0
30/08:30pm 16.4 8.2 9.6 64 3.6 WNW 43 56 23 30 1015.9 1015.8 0.0
30/08:00pm 16.7 8.0 7.9 56 4.4 WNW 43 56 23 30 1015.9 1015.8 0.0
30/07:30pm 15.8 8.7 10.8 72 2.7 NW 39 54 21 29 1015.8 1015.7 0.0
30/07:11pm 16.1 9.6 10.4 69 3.0 WNW 35 54 19 29 1015.8 1015.7 0.0
30/07:00pm 15.6 7.5 10.2 70 2.8 WNW 43 59 23 32 1015.7 1015.6 0.0
30/06:30pm 15.7 7.6 10.7 72 2.7 WNW 44 63 24 34 1015.5 1015.4 0.0
30/06:29pm 15.8 7.9 10.8 72 2.7 WNW 43 61 23 33 1015.5 1015.4 0.0
30/06:00pm 16.7 8.4 7.9 56 4.4 WNW 41 54 22 29 1015.1 1015.0 0.0
30/05:30pm 16.2 7.3 9.2 63 3.6 WNW 46 61 25 33 1015.2 1015.1 0.0
30/05:00pm 16.7 8.6 8.7 59 4.1 NW 41 48 22 26 1015.2 1015.1 0.0
30/04:30pm 16.9 9.1 8.3 57 4.4 NW 39 46 21 25 1015.2 1015.1 0.0
30/04:00pm 17.2 9.2 8.9 58 4.3 NW 41 50 22 27 1015.4 1015.3 0.0
30/03:30pm 16.9 10.1 9.3 61 4.0 NW 35 48 19 26 1015.2 1015.1 0.0
30/03:00pm 17.7 10.7 8.6 55 4.7 WNW 35 46 19 25 1015.4 1015.3 0.0
30/02:30pm 17.2 10.2 8.6 57 4.4 WNW 35 43 19 23 1015.5 1015.4 0.0
30/02:00pm 17.1 9.9 7.7 54 4.7 NW 35 46 19 25 1015.6 1015.5 0.0
30/01:30pm 18.4 11.5 8.7 53 5.0 NW 35 46 19 25 1015.9 1015.8 0.0
30/01:00pm 17.8 11.3 8.1 53 5.0 NW 32 41 17 22 1015.9 1015.8 0.0
30/12:30pm 18.1 12.0 8.1 52 5.1 NW 30 39 16 21 1016.5 1016.5 0.0
30/12:00pm 17.5 9.8 7.3 51 5.1 WNW 37 46 20 25 1016.9 1016.9 0.0
30/11:30am 17.1 11.4 8.5 57 4.4 NW 28 35 15 19 1017.3 1017.3 0.0
30/11:00am 17.8 11.8 7.2 50 5.3 WNW 28 39 15 21 1017.4 1017.4 0.0
30/10:30am 17.4 10.6 7.7 53 4.9 WNW 33 43 18 23 1017.7 1017.7 0.0
30/10:00am 17.1 10.4 8.3 56 4.5 WNW 33 39 18 21 1017.5 1017.5 0.0
30/09:30am 17.3 11.4 7.6 53 4.9 WNW 28 35 15 19 1017.4 1017.4 0.0
30/09:00am 17.0 11.8 7.1 52 4.9 WNW 24 33 13 18 1017.4 1017.4 0.0
30/08:30am 16.1 9.8 7.6 57 4.3 WNW 30 37 16 20 1017.3 1017.3 0.0
30/08:00am 16.2 10.9 6.9 54 4.6 WNW 24 32 13 17 1016.8 1016.8 0.0
30/07:30am 15.7 9.7 7.0 56 4.3 W 28 35 15 19 1016.6 1016.6 0.0
30/07:00am 15.8 11.6 8.3 61 3.8 WSW 20 28 11 15 1016.4 1016.4 0.0
30/06:30am 15.6 11.9 6.3 54 4.5 W 15 19 8 10 1016.2 1016.1 0.0
30/06:00am 15.4 10.4 6.4 55 4.4 W 22 30 12 16 1016.0 1015.9 0.0
30/05:30am 15.1 10.6 5.9 54 4.4 WSW 19 39 10 21 1015.9 1015.8 0.0
30/05:00am 15.5 9.5 5.4 51 4.8 WSW 26 35 14 19 1015.8 1015.7 0.0
30/04:30am 15.8 9.7 6.5 54 4.5 WSW 28 39 15 21 1015.6 1015.5 0.0
30/04:00am 16.1 9.5 7.6 57 4.3 WSW 32 44 17 24 1015.5 1015.4 0.0
30/03:30am 16.1 10.6 9.1 63 3.6 WSW 28 39 15 21 1015.4 1015.3 0.0
30/03:00am 15.9 10.1 6.3 53 4.7 WSW 26 35 14 19 1015.3 1015.2 0.0
30/02:30am 16.3 8.1 6.4 52 4.8 WSW 39 52 21 28 1015.4 1015.3 0.0
30/02:00am 16.7 8.7 7.4 54 4.7 WSW 39 50 21 27 1015.3 1015.2 0.0
30/01:30am 16.9 10.5 9.3 61 4.0 WSW 33 44 18 24 1015.2 1015.1 0.0
30/01:00am 16.9 9.7 9.3 61 4.0 WSW 37 48 20 26 1015.1 1015.0 0.0
30/12:39am 17.0 10.2 9.2 60 4.1 WSW 35 54 19 29 1015.0 1014.9 0.0
30/12:30am 17.1 10.1 9.8 62 3.8 WSW 37 50 20 27 1015.0 1014.9 0.0
30/12:00am 17.4 11.1 11.2 67 3.4 WSW 35 48 19 26 1014.8 1014.7 0.0
 
Date/Time
WST
Temp
°C
App
Temp
°C
Dew
Point
°C
Rel
Hum
%
Delta-T
°C
Wind Press
QNH
hPa
Press
MSL
hPa
Rain since
9am
mm
Dir  Spd
km/h
Gust
km/h
Spd
kts
Gust
kts
29/11:41pm 17.7 12.1 12.2 70 3.0 W 33 52 18 28 1014.7 1014.6 0.0
29/11:30pm 17.4 10.9 12.9 75 2.5 W 39 54 21 29 1014.8 1014.7 0.0
29/11:00pm 17.4 12.0 13.9 80 2.0 W 35 54 19 29 1014.9 1014.8 0.0
29/10:33pm 17.2 9.7 13.9 81 1.9 W 46 65 25 35 1014.7 1014.6 0.0
29/10:30pm 17.3 9.3 13.6 79 2.1 WNW 48 63 26 34 1014.7 1014.6 0.0
29/10:00pm 18.7 10.9 14.0 74 2.7 WNW 48 61 26 33 1014.7 1014.6 0.0
29/09:30pm 18.6 10.7 13.7 73 2.8 WNW 48 59 26 32 1014.5 1014.4 0.0
29/09:00pm 18.6 11.0 13.7 73 2.8 WNW 46 59 25 32 1014.3 1014.2 0.0
29/08:41pm 18.8 11.1 13.4 71 3.1 WNW 46 65 25 35 1014.3 1014.2 0.0
29/08:30pm 19.0 10.2 13.4 70 3.2 WNW 52 67 28 36 1014.2 1014.1 0.0
29/08:24pm 19.0 11.3 13.4 70 3.2 WNW 46 67 25 36 1014.1 1014.0 0.0
29/08:00pm 19.2 12.0 13.6 70 3.2 WNW 44 56 24 30 1013.9 1013.8 0.0
29/07:30pm 19.3 12.2 13.5 69 3.3 WNW 43 57 23 31 1013.4 1013.3 0.0
29/07:00pm 19.3 12.0 13.3 68 3.4 WNW 44 57 24 31 1013.1 1013.0 0.0
29/06:36pm 19.4 12.8 13.6 69 3.3 WNW 41 59 22 32 1012.9 1012.8 0.0
29/06:30pm 19.3 12.2 13.5 69 3.3 WNW 43 59 23 32 1012.7 1012.6 0.0
29/06:00pm 19.7 12.7 14.3 71 3.1 NW 44 57 24 31 1012.3 1012.2 0.0
29/05:30pm 19.7 12.7 14.3 71 3.1 NW 44 56 24 30 1012.1 1012.0 0.0
29/05:00pm 20.1 13.0 15.1 73 2.9 NW 46 59 25 32 1012.0 1011.9 0.0
29/04:30pm 19.8 12.7 16.1 79 2.2 NW 48 63 26 34 1011.9 1011.8 0.0
29/04:00pm 20.3 12.7 16.7 80 2.2 NW 52 74 28 40 1011.6 1011.5 0.0
29/03:55pm 20.4 12.5 16.8 80 2.2 NW 54 74 29 40 1011.5 1011.4 0.0
29/03:30pm 20.7 13.3 17.1 80 2.2 NW 52 65 28 35 1011.4 1011.3 0.0
29/03:00pm 20.9 13.3 16.7 77 2.6 NW 52 70 28 38 1010.8 1010.7 0.0
29/02:59pm 20.9 13.7 16.7 77 2.6 NW 50 70 27 38 1010.7 1010.6 0.0
29/02:30pm 20.8 12.1 16.4 76 2.7 NNW 57 72 31 39 1010.4 1010.3 0.0
29/02:00pm 21.1 12.9 16.1 73 3.0 NNW 54 69 29 37 1010.3 1010.2 0.0
29/01:30pm 20.5 14.3 16.3 77 2.5 NNW 44 56 24 30 1010.5 1010.4 0.0
29/01:00pm 19.8 13.2 16.4 81 2.0 NNW 46 56 25 30 1011.0 1010.9 0.0
29/12:30pm 20.4 14.0 16.0 76 2.6 NNW 44 56 24 30 1011.4 1011.3 0.0
29/12:00pm 19.7 12.7 15.4 76 2.5 NNW 46 59 25 32 1012.0 1011.9 0.0
29/11:30am 19.9 13.3 14.9 73 2.9 N 43 56 23 30 1012.3 1012.2 0.0
29/11:00am 19.0 12.6 15.3 79 2.2 N 43 52 23 28 1013.2 1013.1 0.0
29/10:30am 18.4 11.7 14.7 79 2.1 N 43 54 23 29 1013.4 1013.3 0.0
29/10:00am 17.8 11.8 14.5 81 1.9 N 39 52 21 28 1013.8 1013.7 0.0
29/09:30am 17.7 11.9 14.0 79 2.1 N 37 44 20 24 1014.0 1013.9 0.0
29/09:00am 17.2 11.7 13.5 79 2.1 N 35 44 19 24 1014.4 1014.3 0.0
29/08:30am 17.1 12.2 13.8 81 1.9 N 32 43 17 23 1014.5 1014.4 0.0
29/08:00am 17.5 12.7 14.0 80 2.0 N 32 39 17 21 1014.7 1014.6 0.0
29/07:30am 17.4 13.2 13.5 78 2.2 N 28 35 15 19 1014.7 1014.6 0.0
29/07:00am 17.3 13.1 13.4 78 2.2 N 28 35 15 19 1014.9 1014.8 0.0
29/06:30am 17.2 12.7 12.7 75 2.5 N 28 35 15 19 1015.0 1014.9 0.0
29/06:00am 17.1 11.6 12.0 72 2.8 N 32 39 17 21 1015.0 1014.9 0.0
29/05:30am 16.5 12.7 11.2 71 2.9 N 22 32 12 17 1015.1 1015.0 0.0
29/05:00am 16.4 13.0 11.3 72 2.7 NNE 20 28 11 15 1015.5 1015.4 0.0
29/04:30am 16.1 14.0 12.3 78 2.1 NNE 15 19 8 10 1015.7 1015.6 0.0
29/04:00am 16.1 13.5 12.1 77 2.2 NNE 17 20 9 11 1015.9 1015.8 0.0
29/03:30am 15.9 13.2 11.7 76 2.3 NNE 17 20 9 11 1016.2 1016.1 0.0
29/03:00am 15.7 13.4 11.9 78 2.1 NNE 15 19 8 10 1016.5 1016.5 0.0
29/02:30am 15.9 13.7 12.1 78 2.1 NE 15 17 8 9 1016.8 1016.8 0.0
29/02:00am 15.2 13.6 11.6 79 1.9 ENE 11 11 6 6 1017.1 1017.1 0.0
29/01:30am 15.3 13.4 11.9 80 1.8 ENE 13 17 7 9 1017.3 1017.3 0.0
29/01:00am 15.5 13.9 11.7 78 2.1 ESE 11 13 6 7 1017.7 1017.7 0.0
29/12:30am 15.4 14.2 11.6 78 2.1 ESE 9 11 5 6 1018.1 1018.1 0.0
29/12:00am 15.7 14.4 11.1 74 2.5 E 9 11 5 6 1018.5 1018.5 0.0
 
Date/Time
WST
Temp
°C
App
Temp
°C
Dew
Point
°C
Rel
Hum
%
Delta-T
°C
Wind Press
QNH
hPa
Press
MSL
hPa
Rain since
9am
mm
Dir  Spd
km/h
Gust
km/h
Spd
kts
Gust
kts
28/11:30pm 15.7 14.2 11.9 78 2.1 E 11 13 6 7 1018.7 1018.7 0.0
28/11:00pm 15.1 13.2 11.7 80 1.8 SE 13 13 7 7 1019.1 1019.1 0.0
28/10:30pm 15.4 13.5 11.8 79 2.0 ESE 13 15 7 8 1019.2 1019.2 0.0
28/10:00pm 15.6 14.1 11.8 78 2.1 E 11 13 6 7 1019.7 1019.7 0.0
28/09:30pm 16.5 15.1 12.1 75 2.4 E 11 13 6 7 1019.8 1019.8 0.0
28/09:00pm 17.0 14.7 11.9 72 2.8 SE 15 19 8 10 1020.1 1020.1 0.0
28/08:30pm 17.2 15.2 11.5 69 3.1 SE 13 15 7 8 1020.3 1020.3 0.0
28/08:00pm 17.3 15.0 11.8 70 3.0 SSE 15 19 8 10 1020.2 1020.2 0.0
28/07:30pm 17.3 14.6 11.6 69 3.1 SSE 17 19 9 10 1020.0 1020.0 0.0
28/07:00pm 17.3 14.0 11.6 69 3.1 S 20 22 11 12 1020.0 1020.0 0.0
28/06:30pm 17.2 13.9 11.5 69 3.1 S 20 24 11 13 1019.9 1019.9 0.0
28/06:00pm 17.0 13.7 11.5 70 3.0 S 20 24 11 13 1019.7 1019.7 0.0
28/05:30pm 16.8 13.9 10.9 68 3.2 S 17 20 9 11 1019.6 1019.6 0.0
28/05:00pm 17.5 16.0 10.4 63 3.8 S 9 13 5 7 1019.5 1019.5 0.0
28/04:30pm 17.8 15.7 9.9 60 4.2 SSE 11 15 6 8 1019.3 1019.3 0.0
28/04:00pm 17.7 15.7 8.6 55 4.7 SSE 9 13 5 7 1019.2 1019.2 0.0
28/03:30pm 18.0 16.0 8.6 54 4.9 SSE 9 11 5 6 1019.2 1019.2 0.0
28/03:00pm 18.8 16.9 9.0 53 5.1 S 9 13 5 7 1019.2 1019.2 0.0
28/02:30pm 18.7 17.1 8.9 53 5.1 SE 7 11 4 6 1019.2 1019.2 0.0
28/02:00pm 18.4 16.8 8.1 51 5.3 S 6 13 3 7 1019.4 1019.4 0.0
28/01:30pm 18.7 15.9 8.7 52 5.2 SSE 13 15 7 8 1019.7 1019.7 0.0
28/01:00pm 19.1 17.6 9.3 53 5.2 NNE 7 11 4 6 1020.2 1020.2 0.0
28/12:30pm 18.6 16.2 8.8 53 5.1 NE 11 15 6 8 1020.3 1020.3 0.0
28/12:00pm 18.7 17.1 10.3 58 4.5 NE 9 13 5 7 1020.7 1020.7 0.0
28/11:30am 18.2 16.1 9.8 58 4.5 NNE 11 13 6 7 1021.4 1021.4 0.0
28/11:00am 17.1 15.1 10.2 64 3.6 NE 11 15 6 8 1021.4 1021.4 0.0
28/10:30am 17.1 15.1 10.2 64 3.7 NE 11 15 6 8 1021.7 1021.7 0.0
28/10:00am 16.2 14.6 10.3 68 3.1 NE 9 13 5 7 1022.3 1022.3 0.0
28/09:30am 16.0 14.0 10.1 68 3.1 NE 11 13 6 7 1022.4 1022.4 0.0
28/09:00am 16.0 14.0 10.1 68 3.1 NNE 11 15 6 8 1022.3 1022.3 0.0
28/08:30am 15.7 13.5 10.7 72 2.7 NE 13 15 7 8 1022.1 1022.1 0.0
28/08:00am 14.9 12.6 10.3 74 2.4 NE 13 13 7 7 1021.7 1021.7 0.0
28/07:30am 14.8 12.1 10.4 75 2.3 NE 15 17 8 9 1021.4 1021.4 0.0
28/07:00am 15.2 13.2 10.0 71 2.7 NE 11 13 6 7 1021.3 1021.3 0.0
28/06:30am 15.2 13.2 10.2 72 2.6 NNE 11 13 6 7 1021.3 1021.3 0.0
28/06:00am 14.8 12.9 10.6 76 2.2 NNE 11 15 6 8 1021.4 1021.4 0.0
28/05:30am 14.6 13.1 10.4 76 2.2 NE 9 13 5 7 1021.3 1021.3 0.0
28/05:00am 14.5 11.7 9.9 74 2.4 NE 15 19 8 10 1021.1 1021.1 0.0
28/04:30am 14.8 12.8 10.0 73 2.5 NE 11 13 6 7 1021.5 1021.5 0.0
28/04:00am 14.6 12.6 10.2 75 2.3 ENE 11 15 6 8 1021.4 1021.4 0.0
28/03:30am 14.8 12.5 10.4 75 2.3 NE 13 15 7 8 1021.5 1021.5 0.0
28/03:00am 14.5 12.1 9.9 74 2.4 ENE 13 15 7 8 1021.6 1021.6 0.0
28/02:30am 14.9 12.8 9.9 72 2.6 ENE 11 17 6 9 1021.7 1021.7 0.0
28/02:00am 15.0 13.4 10.2 73 2.5 NNE 9 11 5 6 1022.2 1022.2 0.0
28/01:30am 14.9 12.5 10.1 73 2.5 NE 13 15 7 8 1022.1 1022.1 0.0
28/01:00am 14.9 12.5 10.1 73 2.5 ENE 13 15 7 8 1021.9 1021.9 0.0
28/12:30am 15.3 13.4 10.5 73 2.5 NE 11 15 6 8 1022.1 1022.1 0.0
28/12:00am 15.6 13.3 10.6 72 2.6 NE 13 15 7 8 1022.1 1022.1 0.0
 
Date/Time
WST
Temp
°C
App
Temp
°C
Dew
Point
°C
Rel
Hum
%
Delta-T
°C
Wind Press
QNH
hPa
Press
MSL
hPa
Rain since
9am
mm
Dir  Spd
km/h
Gust
km/h
Spd
kts
Gust
kts
27/11:30pm 15.1 13.5 10.3 73 2.5 NNE 9 13 5 7 1022.9 1022.9 0.0
27/11:00pm 15.0 13.1 10.4 74 2.4 NNE 11 13 6 7 1023.2 1023.2 0.0

Other Formats:

Comma delimited format used in spreadsheet applications
http://www.bom.gov.au/fwo/IDW60801/IDW60801.94602.axf

JavaScript Object Notation format (JSON) in row-major order
http://www.bom.gov.au/fwo/IDW60801/IDW60801.94602.json